sensor_id;sensor_type;location;lat;lon;timestamp;pressure;altitude;pressure_sealevel;temperature;humidity
15678;BME280;7939;50.814;6.368;2023-01-26T00:01:55;100819.84;;;6.37;58.79
15678;BME280;7939;50.814;6.368;2023-01-26T00:04:23;100817.34;;;6.39;58.98
15678;BME280;7939;50.814;6.368;2023-01-26T00:06:49;100816.50;;;6.38;58.32
15678;BME280;7939;50.814;6.368;2023-01-26T00:09:16;100810.56;;;6.38;59.16
15678;BME280;7939;50.814;6.368;2023-01-26T00:11:43;100811.25;;;6.34;58.41
15678;BME280;7939;50.814;6.368;2023-01-26T00:14:09;100804.63;;;6.37;58.99
15678;BME280;7939;50.814;6.368;2023-01-26T00:16:36;100793.59;;;6.37;58.32
15678;BME280;7939;50.814;6.368;2023-01-26T00:19:03;100801.22;;;6.37;58.44
15678;BME280;7939;50.814;6.368;2023-01-26T00:21:31;100795.28;;;6.36;58.82
15678;BME280;7939;50.814;6.368;2023-01-26T00:23:58;100790.22;;;6.36;59.14
15678;BME280;7939;50.814;6.368;2023-01-26T00:26:26;100786.84;;;6.37;58.35
15678;BME280;7939;50.814;6.368;2023-01-26T00:28:53;100788.53;;;6.37;58.06
15678;BME280;7939;50.814;6.368;2023-01-26T00:31:21;100780.09;;;6.38;58.32
15678;BME280;7939;50.814;6.368;2023-01-26T00:33:49;100782.59;;;6.36;59.17
15678;BME280;7939;50.814;6.368;2023-01-26T00:36:16;100769.91;;;6.36;58.72
15678;BME280;7939;50.814;6.368;2023-01-26T00:38:43;100773.28;;;6.37;58.80
15678;BME280;7939;50.814;6.368;2023-01-26T00:41:11;100767.34;;;6.36;58.73
15678;BME280;7939;50.814;6.368;2023-01-26T00:43:58;100775.03;;;6.38;58.66
15678;BME280;7939;50.814;6.368;2023-01-26T00:46:25;100770.75;;;6.37;58.29
15678;BME280;7939;50.814;6.368;2023-01-26T00:48:52;100767.41;;;6.38;58.39
15678;BME280;7939;50.814;6.368;2023-01-26T00:51:19;100769.94;;;6.38;57.88
15678;BME280;7939;50.814;6.368;2023-01-26T00:53:47;100767.19;;;6.32;58.39
15678;BME280;7939;50.814;6.368;2023-01-26T00:56:13;100767.34;;;6.36;58.94
15678;BME280;7939;50.814;6.368;2023-01-26T00:58:40;100767.34;;;6.36;58.61
15678;BME280;7939;50.814;6.368;2023-01-26T01:01:09;100753.81;;;6.36;58.89
15678;BME280;7939;50.814;6.368;2023-01-26T01:03:35;100752.13;;;6.36;58.90
15678;BME280;7939;50.814;6.368;2023-01-26T01:06:02;100756.34;;;6.36;58.35
15678;BME280;7939;50.814;6.368;2023-01-26T01:08:28;100745.34;;;6.35;58.26
15678;BME280;7939;50.814;6.368;2023-01-26T01:11:03;100742.78;;;6.35;58.13
15678;BME280;7939;50.814;6.368;2023-01-26T01:13:30;100736.91;;;6.36;58.77
15678;BME280;7939;50.814;6.368;2023-01-26T01:15:57;100740.28;;;6.37;58.33
15678;BME280;7939;50.814;6.368;2023-01-26T01:18:23;100732.63;;;6.35;59.03
15678;BME280;7939;50.814;6.368;2023-01-26T01:20:50;100740.28;;;6.37;58.06
15678;BME280;7939;50.814;6.368;2023-01-26T01:23:17;100720.00;;;6.37;58.12
15678;BME280;7939;50.814;6.368;2023-01-26T01:25:44;100726.75;;;6.36;59.04
15678;BME280;7939;50.814;6.368;2023-01-26T01:28:12;100713.19;;;6.36;59.10
15678;BME280;7939;50.814;6.368;2023-01-26T01:30:39;100706.44;;;6.36;58.49
15678;BME280;7939;50.814;6.368;2023-01-26T01:33:06;100699.69;;;6.37;58.43
15678;BME280;7939;50.814;6.368;2023-01-26T01:35:32;100688.66;;;6.36;58.27
15678;BME280;7939;50.814;6.368;2023-01-26T01:38:00;100691.25;;;6.38;58.37
15678;BME280;7939;50.814;6.368;2023-01-26T01:40:26;100693.78;;;6.38;58.22
15678;BME280;7939;50.814;6.368;2023-01-26T01:42:53;100691.25;;;6.38;58.84
15678;BME280;7939;50.814;6.368;2023-01-26T01:45:41;100682.78;;;6.37;58.60
15678;BME280;7939;50.814;6.368;2023-01-26T01:48:14;100672.63;;;6.37;59.16
15678;BME280;7939;50.814;6.368;2023-01-26T01:50:43;100670.91;;;6.36;58.92
15678;BME280;7939;50.814;6.368;2023-01-26T01:53:12;100676.78;;;6.35;58.75
15678;BME280;7939;50.814;6.368;2023-01-26T01:55:42;100672.63;;;6.37;58.47
15678;BME280;7939;50.814;6.368;2023-01-26T01:58:10;100677.66;;;6.36;58.97
15678;BME280;7939;50.814;6.368;2023-01-26T02:00:39;100673.44;;;6.36;58.24
15678;BME280;7939;50.814;6.368;2023-01-26T02:03:07;100670.03;;;6.36;58.69
15678;BME280;7939;50.814;6.368;2023-01-26T02:05:44;100659.88;;;6.36;58.67
15678;BME280;7939;50.814;6.368;2023-01-26T02:08:15;100668.34;;;6.36;58.08
15678;BME280;7939;50.814;6.368;2023-01-26T02:10:45;100664.09;;;6.35;58.13
15678;BME280;7939;50.814;6.368;2023-01-26T02:13:12;100659.78;;;6.33;58.81
15678;BME280;7939;50.814;6.368;2023-01-26T02:15:42;100663.22;;;6.35;58.06
15678;BME280;7939;50.814;6.368;2023-01-26T02:18:09;100658.13;;;6.35;58.28
15678;BME280;7939;50.814;6.368;2023-01-26T02:20:41;100657.28;;;6.34;58.31
15678;BME280;7939;50.814;6.368;2023-01-26T02:23:26;100658.94;;;6.34;59.05
15678;BME280;7939;50.814;6.368;2023-01-26T02:26:04;100653.06;;;6.35;58.15
15678;BME280;7939;50.814;6.368;2023-01-26T02:28:32;100656.41;;;6.34;58.19
15678;BME280;7939;50.814;6.368;2023-01-26T02:30:59;100664.88;;;6.34;58.86
15678;BME280;7939;50.814;6.368;2023-01-26T02:33:28;100664.03;;;6.34;58.68
15678;BME280;7939;50.814;6.368;2023-01-26T02:35:56;100656.41;;;6.34;58.30
15678;BME280;7939;50.814;6.368;2023-01-26T02:38:24;100651.34;;;6.34;58.34
15678;BME280;7939;50.814;6.368;2023-01-26T02:40:55;100652.97;;;6.32;58.19
15678;BME280;7939;50.814;6.368;2023-01-26T02:43:25;100657.16;;;6.30;58.13
15678;BME280;7939;50.814;6.368;2023-01-26T02:45:51;100646.16;;;6.29;58.74
15678;BME280;7939;50.814;6.368;2023-01-26T02:48:18;100646.19;;;6.31;58.91
15678;BME280;7939;50.814;6.368;2023-01-26T02:50:59;100641.09;;;6.31;58.38
15678;BME280;7939;50.814;6.368;2023-01-26T02:53:26;100639.25;;;6.25;59.01
15678;BME280;7939;50.814;6.368;2023-01-26T02:55:52;100646.88;;;6.27;58.58
15678;BME280;7939;50.814;6.368;2023-01-26T02:58:18;100642.75;;;6.29;58.34
15678;BME280;7939;50.814;6.368;2023-01-26T03:00:45;100631.69;;;6.28;58.29
15678;BME280;7939;50.814;6.368;2023-01-26T03:03:13;100633.34;;;6.26;58.69
15678;BME280;7939;50.814;6.368;2023-01-26T03:05:40;100635.91;;;6.28;58.87
15678;BME280;7939;50.814;6.368;2023-01-26T03:08:07;100623.31;;;6.29;58.31
15678;BME280;7939;50.814;6.368;2023-01-26T03:10:34;100628.38;;;6.29;58.24
15678;BME280;7939;50.814;6.368;2023-01-26T03:13:01;100629.22;;;6.30;59.07
15678;BME280;7939;50.814;6.368;2023-01-26T03:15:27;100629.22;;;6.30;58.03
15678;BME280;7939;50.814;6.368;2023-01-26T03:18:09;100621.63;;;6.30;58.23
15678;BME280;7939;50.814;6.368;2023-01-26T03:20:54;100623.31;;;6.29;58.95
15678;BME280;7939;50.814;6.368;2023-01-26T03:23:38;100621.63;;;6.30;58.79
15678;BME280;7939;50.814;6.368;2023-01-26T03:26:23;100621.63;;;6.30;58.57
15678;BME280;7939;50.814;6.368;2023-01-26T03:29:07;100619.00;;;6.28;58.92
15678;BME280;7939;50.814;6.368;2023-01-26T03:31:33;100613.16;;;6.29;59.35
15678;BME280;7939;50.814;6.368;2023-01-26T03:34:01;100614.00;;;6.30;58.87
15678;BME280;7939;50.814;6.368;2023-01-26T03:36:28;100619.00;;;6.28;59.25
15678;BME280;7939;50.814;6.368;2023-01-26T03:38:55;100613.91;;;6.27;58.45
15678;BME280;7939;50.814;6.368;2023-01-26T03:41:21;100618.16;;;6.28;58.64
15678;BME280;7939;50.814;6.368;2023-01-26T03:44:05;100613.91;;;6.27;58.68
15678;BME280;7939;50.814;6.368;2023-01-26T03:46:49;100608.84;;;6.28;58.73
15678;BME280;7939;50.814;6.368;2023-01-26T03:49:35;100605.47;;;6.28;59.14
15678;BME280;7939;50.814;6.368;2023-01-26T03:52:19;100617.28;;;6.27;59.08
15678;BME280;7939;50.814;6.368;2023-01-26T03:55:04;100620.69;;;6.28;59.33
15678;BME280;7939;50.814;6.368;2023-01-26T03:57:48;100613.06;;;6.28;59.19
15678;BME280;7939;50.814;6.368;2023-01-26T04:00:15;100610.53;;;6.28;59.31
15678;BME280;7939;50.814;6.368;2023-01-26T04:02:42;100603.75;;;6.27;58.42
15678;BME280;7939;50.814;6.368;2023-01-26T04:05:27;100613.06;;;6.28;58.59
15678;BME280;7939;50.814;6.368;2023-01-26T04:08:11;100613.94;;;6.28;58.71
15678;BME280;7939;50.814;6.368;2023-01-26T04:10:48;100605.47;;;6.28;59.13
15678;BME280;7939;50.814;6.368;2023-01-26T04:13:16;100596.16;;;6.28;59.16
15678;BME280;7939;50.814;6.368;2023-01-26T04:16:00;100603.78;;;6.28;58.58
15678;BME280;7939;50.814;6.368;2023-01-26T04:18:44;100604.69;;;6.29;58.93
15678;BME280;7939;50.814;6.368;2023-01-26T04:21:30;100599.59;;;6.29;58.92
15678;BME280;7939;50.814;6.368;2023-01-26T04:23:59;100595.38;;;6.29;58.41
15678;BME280;7939;50.814;6.368;2023-01-26T04:26:28;100592.84;;;6.29;58.80
15678;BME280;7939;50.814;6.368;2023-01-26T04:28:59;100591.97;;;6.29;59.30
15678;BME280;7939;50.814;6.368;2023-01-26T04:31:26;100596.25;;;6.30;59.37
15678;BME280;7939;50.814;6.368;2023-01-26T04:33:53;100597.06;;;6.29;59.14
15678;BME280;7939;50.814;6.368;2023-01-26T04:36:19;100601.16;;;6.25;59.16
15678;BME280;7939;50.814;6.368;2023-01-26T04:38:47;100605.41;;;6.26;58.75
15678;BME280;7939;50.814;6.368;2023-01-26T04:41:15;100596.06;;;6.24;59.35
15678;BME280;7939;50.814;6.368;2023-01-26T04:43:41;100596.09;;;6.25;58.37
15678;BME280;7939;50.814;6.368;2023-01-26T04:46:09;100605.34;;;6.23;58.51
15678;BME280;7939;50.814;6.368;2023-01-26T04:48:36;100603.59;;;6.22;59.00
15678;BME280;7939;50.814;6.368;2023-01-26T04:51:04;100609.56;;;6.22;59.17
15678;BME280;7939;50.814;6.368;2023-01-26T04:53:32;100610.34;;;6.21;59.15
15678;BME280;7939;50.814;6.368;2023-01-26T04:56:00;100622.09;;;6.18;59.27
15678;BME280;7939;50.814;6.368;2023-01-26T04:58:27;100623.00;;;6.20;59.62
15678;BME280;7939;50.814;6.368;2023-01-26T05:00:55;100617.06;;;6.19;58.78
15678;BME280;7939;50.814;6.368;2023-01-26T05:03:23;100611.94;;;6.18;58.91
15678;BME280;7939;50.814;6.368;2023-01-26T05:05:52;100606.94;;;6.21;58.67
15678;BME280;7939;50.814;6.368;2023-01-26T05:08:20;100606.06;;;6.19;58.83
15678;BME280;7939;50.814;6.368;2023-01-26T05:10:47;100614.56;;;6.21;59.36
15678;BME280;7939;50.814;6.368;2023-01-26T05:13:15;100600.19;;;6.21;58.71
15678;BME280;7939;50.814;6.368;2023-01-26T05:15:42;100589.25;;;6.22;59.66
15678;BME280;7939;50.814;6.368;2023-01-26T05:18:09;100591.78;;;6.22;59.41
15678;BME280;7939;50.814;6.368;2023-01-26T05:20:36;100596.94;;;6.26;59.50
15678;BME280;7939;50.814;6.368;2023-01-26T05:23:02;100598.63;;;6.25;58.91
15678;BME280;7939;50.814;6.368;2023-01-26T05:25:29;100600.34;;;6.26;58.69
15678;BME280;7939;50.814;6.368;2023-01-26T05:27:55;100599.50;;;6.26;59.59
15678;BME280;7939;50.814;6.368;2023-01-26T05:30:23;100595.28;;;6.26;58.80
15678;BME280;7939;50.814;6.368;2023-01-26T05:32:50;100607.13;;;6.27;58.97
15678;BME280;7939;50.814;6.368;2023-01-26T05:35:17;100602.03;;;6.26;59.37
15678;BME280;7939;50.814;6.368;2023-01-26T05:37:44;100604.56;;;6.26;58.95
15678;BME280;7939;50.814;6.368;2023-01-26T05:40:12;100598.66;;;6.27;59.29
15678;BME280;7939;50.814;6.368;2023-01-26T05:42:38;100611.34;;;6.27;59.48
15678;BME280;7939;50.814;6.368;2023-01-26T05:45:06;100607.09;;;6.26;59.81
15678;BME280;7939;50.814;6.368;2023-01-26T05:47:35;100607.09;;;6.26;59.01
15678;BME280;7939;50.814;6.368;2023-01-26T05:50:02;100610.50;;;6.26;59.52
15678;BME280;7939;50.814;6.368;2023-01-26T05:52:29;100610.50;;;6.26;59.47
15678;BME280;7939;50.814;6.368;2023-01-26T05:54:55;100602.03;;;6.26;59.11
15678;BME280;7939;50.814;6.368;2023-01-26T05:57:22;100616.41;;;6.25;59.67
15678;BME280;7939;50.814;6.368;2023-01-26T05:59:49;100604.59;;;6.27;59.83
15678;BME280;7939;50.814;6.368;2023-01-26T06:02:15;100602.03;;;6.26;59.50
15678;BME280;7939;50.814;6.368;2023-01-26T06:04:43;100598.66;;;6.27;59.96
15678;BME280;7939;50.814;6.368;2023-01-26T06:07:10;100603.75;;;6.27;59.63
15678;BME280;7939;50.814;6.368;2023-01-26T06:09:38;100607.97;;;6.26;59.87
15678;BME280;7939;50.814;6.368;2023-01-26T06:12:05;100607.09;;;6.26;59.77
15678;BME280;7939;50.814;6.368;2023-01-26T06:14:31;100623.19;;;6.26;59.26
15678;BME280;7939;50.814;6.368;2023-01-26T06:16:58;100623.19;;;6.26;59.79
15678;BME280;7939;50.814;6.368;2023-01-26T06:19:24;100616.44;;;6.27;59.16
15678;BME280;7939;50.814;6.368;2023-01-26T06:21:52;100625.72;;;6.26;59.63
15678;BME280;7939;50.814;6.368;2023-01-26T06:24:19;100627.44;;;6.27;59.60
15678;BME280;7939;50.814;6.368;2023-01-26T06:26:46;100637.56;;;6.26;59.73
15678;BME280;7939;50.814;6.368;2023-01-26T06:29:12;100639.28;;;6.27;59.53
15678;BME280;7939;50.814;6.368;2023-01-26T06:31:39;100637.56;;;6.26;59.99
15678;BME280;7939;50.814;6.368;2023-01-26T06:34:06;100628.25;;;6.26;59.78
15678;BME280;7939;50.814;6.368;2023-01-26T06:36:33;100631.63;;;6.25;59.74
15678;BME280;7939;50.814;6.368;2023-01-26T06:39:01;100623.16;;;6.25;59.37
15678;BME280;7939;50.814;6.368;2023-01-26T06:41:28;100633.34;;;6.26;59.83
15678;BME280;7939;50.814;6.368;2023-01-26T06:43:55;100633.19;;;6.21;59.16
15678;BME280;7939;50.814;6.368;2023-01-26T06:46:21;100637.47;;;6.22;60.14
15678;BME280;7939;50.814;6.368;2023-01-26T06:48:48;100630.59;;;6.20;59.85
15678;BME280;7939;50.814;6.368;2023-01-26T06:51:45;100639.09;;;6.20;59.02
15678;BME280;7939;50.814;6.368;2023-01-26T06:54:14;100632.41;;;6.22;59.68
15678;BME280;7939;50.814;6.368;2023-01-26T06:56:41;100625.56;;;6.21;59.90
15678;BME280;7939;50.814;6.368;2023-01-26T06:59:07;100631.59;;;6.24;59.91
15678;BME280;7939;50.814;6.368;2023-01-26T07:01:38;100638.38;;;6.25;59.30
15678;BME280;7939;50.814;6.368;2023-01-26T07:04:06;100642.56;;;6.22;59.53
15678;BME280;7939;50.814;6.368;2023-01-26T07:06:33;100640.06;;;6.24;60.00
15678;BME280;7939;50.814;6.368;2023-01-26T07:08:59;100644.19;;;6.22;59.69
15678;BME280;7939;50.814;6.368;2023-01-26T07:11:27;100636.59;;;6.22;59.73
15678;BME280;7939;50.814;6.368;2023-01-26T07:13:57;100645.09;;;6.22;59.52
15678;BME280;7939;50.814;6.368;2023-01-26T07:16:23;100642.56;;;6.22;59.65
15678;BME280;7939;50.814;6.368;2023-01-26T07:18:51;100644.28;;;6.24;59.64
15678;BME280;7939;50.814;6.368;2023-01-26T07:21:19;100646.00;;;6.25;60.02
15678;BME280;7939;50.814;6.368;2023-01-26T07:23:47;100640.91;;;6.25;59.39
15678;BME280;7939;50.814;6.368;2023-01-26T07:26:14;100643.41;;;6.23;59.44
15678;BME280;7939;50.814;6.368;2023-01-26T07:28:43;100638.38;;;6.25;59.52
15678;BME280;7939;50.814;6.368;2023-01-26T07:31:10;100643.41;;;6.23;59.77
15678;BME280;7939;50.814;6.368;2023-01-26T07:33:37;100649.34;;;6.24;59.79
15678;BME280;7939;50.814;6.368;2023-01-26T07:36:04;100642.63;;;6.26;59.50
15678;BME280;7939;50.814;6.368;2023-01-26T07:38:31;100643.44;;;6.25;59.72
15678;BME280;7939;50.814;6.368;2023-01-26T07:41:03;100644.31;;;6.25;59.60
15678;BME280;7939;50.814;6.368;2023-01-26T07:43:32;100648.56;;;6.26;59.59
15678;BME280;7939;50.814;6.368;2023-01-26T07:46:00;100640.06;;;6.24;59.77
15678;BME280;7939;50.814;6.368;2023-01-26T07:48:27;100654.47;;;6.25;60.18
15678;BME280;7939;50.814;6.368;2023-01-26T07:50:57;100642.63;;;6.26;60.08
15678;BME280;7939;50.814;6.368;2023-01-26T07:53:24;100646.03;;;6.26;59.97
15678;BME280;7939;50.814;6.368;2023-01-26T07:55:54;100645.16;;;6.26;59.60
15678;BME280;7939;50.814;6.368;2023-01-26T07:58:20;100646.03;;;6.26;60.43
15678;BME280;7939;50.814;6.368;2023-01-26T08:00:47;100647.72;;;6.26;59.72
15678;BME280;7939;50.814;6.368;2023-01-26T08:03:15;100645.22;;;6.27;60.52
15678;BME280;7939;50.814;6.368;2023-01-26T08:05:42;100653.69;;;6.28;59.34
15678;BME280;7939;50.814;6.368;2023-01-26T08:08:08;100644.34;;;6.27;60.15
15678;BME280;7939;50.814;6.368;2023-01-26T08:10:35;100648.59;;;6.28;60.32
15678;BME280;7939;50.814;6.368;2023-01-26T08:13:02;100653.66;;;6.26;60.13
15678;BME280;7939;50.814;6.368;2023-01-26T08:15:29;100656.22;;;6.28;60.60
15678;BME280;7939;50.814;6.368;2023-01-26T08:17:55;100657.03;;;6.27;60.35
15678;BME280;7939;50.814;6.368;2023-01-26T08:20:23;100656.13;;;6.25;60.48
15678;BME280;7939;50.814;6.368;2023-01-26T08:22:50;100650.09;;;6.21;59.53
15678;BME280;7939;50.814;6.368;2023-01-26T08:25:17;100646.88;;;6.27;60.35
15678;BME280;7939;50.814;6.368;2023-01-26T08:27:44;100648.59;;;6.28;60.42
15678;BME280;7939;50.814;6.368;2023-01-26T08:30:11;100643.53;;;6.28;59.70
15678;BME280;7939;50.814;6.368;2023-01-26T08:32:37;100650.25;;;6.26;60.32
15678;BME280;7939;50.814;6.368;2023-01-26T08:35:05;100649.34;;;6.24;59.97
15678;BME280;7939;50.814;6.368;2023-01-26T08:37:33;100660.19;;;6.19;60.13
15678;BME280;7939;50.814;6.368;2023-01-26T08:39:59;100668.84;;;6.25;60.38
15678;BME280;7939;50.814;6.368;2023-01-26T08:42:26;100666.19;;;6.21;60.70
15678;BME280;7939;50.814;6.368;2023-01-26T08:44:53;100670.34;;;6.19;60.22
15678;BME280;7939;50.814;6.368;2023-01-26T08:47:19;100673.00;;;6.22;60.04
15678;BME280;7939;50.814;6.368;2023-01-26T08:49:46;100666.25;;;6.23;60.70
15678;BME280;7939;50.814;6.368;2023-01-26T08:52:12;100673.06;;;6.24;59.77
15678;BME280;7939;50.814;6.368;2023-01-26T08:54:42;100672.94;;;6.21;60.04
15678;BME280;7939;50.814;6.368;2023-01-26T08:57:08;100674.47;;;6.16;60.32
15678;BME280;7939;50.814;6.368;2023-01-26T08:59:36;100683.88;;;6.18;60.13
15678;BME280;7939;50.814;6.368;2023-01-26T09:02:03;100685.69;;;6.22;60.47
15678;BME280;7939;50.814;6.368;2023-01-26T09:04:29;100689.09;;;6.23;60.52
15678;BME280;7939;50.814;6.368;2023-01-26T09:06:56;100695.72;;;6.19;60.61
15678;BME280;7939;50.814;6.368;2023-01-26T09:09:22;100679.72;;;6.22;60.49
15678;BME280;7939;50.814;6.368;2023-01-26T09:11:53;100684.06;;;6.25;59.86
15678;BME280;7939;50.814;6.368;2023-01-26T09:14:20;100684.09;;;6.26;60.33
15678;BME280;7939;50.814;6.368;2023-01-26T09:16:48;100686.63;;;6.26;60.33
15678;BME280;7939;50.814;6.368;2023-01-26T09:19:15;100689.19;;;6.26;59.97
15678;BME280;7939;50.814;6.368;2023-01-26T09:21:41;100684.97;;;6.27;60.62
15678;BME280;7939;50.814;6.368;2023-01-26T09:24:08;100690.03;;;6.27;60.03
15678;BME280;7939;50.814;6.368;2023-01-26T09:26:35;100689.22;;;6.28;60.52
15678;BME280;7939;50.814;6.368;2023-01-26T09:29:03;100695.13;;;6.27;60.60
15678;BME280;7939;50.814;6.368;2023-01-26T09:31:29;100694.25;;;6.26;60.75
15678;BME280;7939;50.814;6.368;2023-01-26T09:33:56;100704.44;;;6.28;60.23
15678;BME280;7939;50.814;6.368;2023-01-26T09:36:22;100704.25;;;6.21;60.32
15678;BME280;7939;50.814;6.368;2023-01-26T09:38:49;100710.13;;;6.20;60.43
15678;BME280;7939;50.814;6.368;2023-01-26T09:41:48;100704.38;;;6.25;60.64
15678;BME280;7939;50.814;6.368;2023-01-26T09:44:23;100709.47;;;6.26;60.84
15678;BME280;7939;50.814;6.368;2023-01-26T09:47:00;100706.97;;;6.28;60.72
15678;BME280;7939;50.814;6.368;2023-01-26T09:49:39;100709.47;;;6.26;60.85
15678;BME280;7939;50.814;6.368;2023-01-26T09:52:14;100712.88;;;6.27;60.87
15678;BME280;7939;50.814;6.368;2023-01-26T09:54:45;100714.56;;;6.26;60.91
15678;BME280;7939;50.814;6.368;2023-01-26T09:57:15;100711.84;;;6.21;59.88
15678;BME280;7939;50.814;6.368;2023-01-26T09:59:47;100710.34;;;6.27;60.82
15678;BME280;7939;50.814;6.368;2023-01-26T10:02:24;100710.34;;;6.27;61.02
15678;BME280;7939;50.814;6.368;2023-01-26T10:05:00;100710.25;;;6.24;60.20
15678;BME280;7939;50.814;6.368;2023-01-26T10:07:28;100708.47;;;6.21;60.96
15678;BME280;7939;50.814;6.368;2023-01-26T10:09:55;100707.66;;;6.22;60.35
15678;BME280;7939;50.814;6.368;2023-01-26T10:12:23;100714.50;;;6.25;60.87
15678;BME280;7939;50.814;6.368;2023-01-26T10:14:54;100711.84;;;6.21;60.80
15678;BME280;7939;50.814;6.368;2023-01-26T10:17:27;100706.78;;;6.21;60.65
15678;BME280;7939;50.814;6.368;2023-01-26T10:19:59;100708.63;;;6.26;60.97
15678;BME280;7939;50.814;6.368;2023-01-26T10:22:39;100700.84;;;6.21;60.87
15678;BME280;7939;50.814;6.368;2023-01-26T10:25:13;100697.66;;;6.27;60.88
15678;BME280;7939;50.814;6.368;2023-01-26T10:27:41;100696.84;;;6.28;61.29
15678;BME280;7939;50.814;6.368;2023-01-26T10:30:13;100703.31;;;6.18;60.34
15678;BME280;7939;50.814;6.368;2023-01-26T10:32:41;100699.38;;;6.28;60.83
15678;BME280;7939;50.814;6.368;2023-01-26T10:35:14;100690.03;;;6.27;60.54
15678;BME280;7939;50.814;6.368;2023-01-26T10:37:41;100686.63;;;6.26;60.56
15678;BME280;7939;50.814;6.368;2023-01-26T10:40:09;100687.59;;;6.30;60.92
15678;BME280;7939;50.814;6.368;2023-01-26T10:42:37;100683.34;;;6.29;60.83
15678;BME280;7939;50.814;6.368;2023-01-26T10:45:22;100677.34;;;6.27;61.36
15678;BME280;7939;50.814;6.368;2023-01-26T10:48:03;100673.88;;;6.23;60.46
15678;BME280;7939;50.814;6.368;2023-01-26T10:50:31;100672.31;;;6.28;60.45
15678;BME280;7939;50.814;6.368;2023-01-26T10:52:59;100674.81;;;6.27;60.90
15678;BME280;7939;50.814;6.368;2023-01-26T10:55:27;100670.56;;;6.26;61.14
15678;BME280;7939;50.814;6.368;2023-01-26T10:57:54;100668.78;;;6.23;61.23
15678;BME280;7939;50.814;6.368;2023-01-26T11:00:24;100662.94;;;6.26;61.46
15678;BME280;7939;50.814;6.368;2023-01-26T11:02:55;100662.78;;;6.21;60.83
15678;BME280;7939;50.814;6.368;2023-01-26T11:05:26;100672.31;;;6.28;60.67
15678;BME280;7939;50.814;6.368;2023-01-26T11:07:53;100659.63;;;6.28;61.30
15678;BME280;7939;50.814;6.368;2023-01-26T11:10:28;100658.63;;;6.23;61.20
15678;BME280;7939;50.814;6.368;2023-01-26T11:13:07;100657.88;;;6.26;61.75
15678;BME280;7939;50.814;6.368;2023-01-26T11:15:39;100655.31;;;6.26;61.04
15678;BME280;7939;50.814;6.368;2023-01-26T11:18:14;100652.06;;;6.30;61.17
15678;BME280;7939;50.814;6.368;2023-01-26T11:20:49;100647.63;;;6.22;60.94
15678;BME280;7939;50.814;6.368;2023-01-26T11:23:26;100650.94;;;6.21;61.01
15678;BME280;7939;50.814;6.368;2023-01-26T11:29:35;100649.63;;;6.06;61.11
15678;BME280;7939;50.814;6.368;2023-01-26T11:32:11;100641.16;;;6.05;61.60
15678;BME280;7939;50.814;6.368;2023-01-26T11:34:48;100639.09;;;6.20;61.25
15678;BME280;7939;50.814;6.368;2023-01-26T11:37:35;100645.75;;;6.17;61.70
15678;BME280;7939;50.814;6.368;2023-01-26T11:40:25;100644.19;;;6.22;61.06
15678;BME280;7939;50.814;6.368;2023-01-26T11:43:10;100638.84;;;6.13;61.97
15678;BME280;7939;50.814;6.368;2023-01-26T11:45:53;100642.41;;;6.18;61.02
15678;BME280;7939;50.814;6.368;2023-01-26T11:48:28;100644.75;;;6.12;61.76
15678;BME280;7939;50.814;6.368;2023-01-26T11:51:08;100644.13;;;6.19;61.89
15678;BME280;7939;50.814;6.368;2023-01-26T11:53:54;100636.53;;;6.20;62.03
15678;BME280;7939;50.814;6.368;2023-01-26T11:56:33;100643.25;;;6.18;61.53
15678;BME280;7939;50.814;6.368;2023-01-26T11:59:05;100640.53;;;6.12;62.09
15678;BME280;7939;50.814;6.368;2023-01-26T12:01:39;100643.31;;;6.20;61.98
15678;BME280;7939;50.814;6.368;2023-01-26T12:04:13;100634.63;;;6.13;61.47
15678;BME280;7939;50.814;6.368;2023-01-26T12:06:45;100637.00;;;6.09;62.15
15678;BME280;7939;50.814;6.368;2023-01-26T12:09:16;100636.34;;;6.14;62.19
15678;BME280;7939;50.814;6.368;2023-01-26T12:11:51;100636.94;;;6.06;62.41
15678;BME280;7939;50.814;6.368;2023-01-26T12:14:25;100632.06;;;6.12;61.97
15678;BME280;7939;50.814;6.368;2023-01-26T12:17:05;100627.91;;;6.15;62.45
15678;BME280;7939;50.814;6.368;2023-01-26T12:19:40;100623.66;;;6.14;61.94
15678;BME280;7939;50.814;6.368;2023-01-26T12:22:12;100631.38;;;6.17;61.61
15678;BME280;7939;50.814;6.368;2023-01-26T12:24:49;100629.78;;;6.21;61.84
15678;BME280;7939;50.814;6.368;2023-01-26T12:27:20;100613.81;;;6.24;62.11
15678;BME280;7939;50.814;6.368;2023-01-26T12:29:51;100610.16;;;6.15;62.24
15678;BME280;7939;50.814;6.368;2023-01-26T12:32:22;100622.97;;;6.18;62.09
15678;BME280;7939;50.814;6.368;2023-01-26T12:34:50;100616.88;;;6.13;61.92
15678;BME280;7939;50.814;6.368;2023-01-26T12:37:45;100615.41;;;6.21;61.71
15678;BME280;7939;50.814;6.368;2023-01-26T12:40:24;100598.59;;;6.24;61.85
15678;BME280;7939;50.814;6.368;2023-01-26T12:43:05;100592.84;;;6.29;61.77
15678;BME280;7939;50.814;6.368;2023-01-26T12:45:38;100592.88;;;6.31;61.61
15678;BME280;7939;50.814;6.368;2023-01-26T12:48:13;100582.72;;;6.31;62.38
15678;BME280;7939;50.814;6.368;2023-01-26T12:50:44;100578.53;;;6.33;61.40
15678;BME280;7939;50.814;6.368;2023-01-26T12:53:15;100581.94;;;6.33;62.13
15678;BME280;7939;50.814;6.368;2023-01-26T12:55:48;100580.25;;;6.34;61.39
15678;BME280;7939;50.814;6.368;2023-01-26T12:58:21;100589.66;;;6.36;62.07
15678;BME280;7939;50.814;6.368;2023-01-26T13:00:51;100586.19;;;6.34;61.47
15678;BME280;7939;50.814;6.368;2023-01-26T13:03:21;100581.09;;;6.33;61.45
15678;BME280;7939;50.814;6.368;2023-01-26T13:05:55;100577.72;;;6.34;61.84
15678;BME280;7939;50.814;6.368;2023-01-26T13:08:49;100577.78;;;6.35;62.41
15678;BME280;7939;50.814;6.368;2023-01-26T13:11:48;100573.44;;;6.31;61.74
15678;BME280;7939;50.814;6.368;2023-01-26T13:14:36;100580.38;;;6.37;61.42
15678;BME280;7939;50.814;6.368;2023-01-26T13:23:37;100580.22;;;6.32;62.19
15678;BME280;7939;50.814;6.368;2023-01-26T13:26:13;100586.16;;;6.33;61.63
15678;BME280;7939;50.814;6.368;2023-01-26T13:28:43;100589.66;;;6.36;61.94
15678;BME280;7939;50.814;6.368;2023-01-26T13:31:10;100582.88;;;6.35;61.58
15678;BME280;7939;50.814;6.368;2023-01-26T13:33:38;100582.06;;;6.36;61.84
15678;BME280;7939;50.814;6.368;2023-01-26T13:36:12;100577.72;;;6.34;62.02
15678;BME280;7939;50.814;6.368;2023-01-26T13:38:42;100577.63;;;6.29;62.85